createdAt,value
2022-12-12T00:00:45.591Z,67.40
2022-12-12T00:03:13.267Z,66.90
2022-12-12T00:05:41.304Z,66.00
2022-12-12T00:08:08.801Z,66.30
2022-12-12T00:10:36.437Z,65.90
2022-12-12T00:13:04.530Z,66.50
2022-12-12T00:15:32.252Z,65.20
2022-12-12T00:17:59.444Z,66.30
2022-12-12T00:20:26.695Z,65.60
2022-12-12T00:22:54.435Z,64.70
2022-12-12T00:25:21.686Z,64.70
2022-12-12T00:27:48.867Z,64.70
2022-12-12T00:30:16.090Z,65.40
2022-12-12T00:32:43.298Z,64.60
2022-12-12T00:35:10.785Z,64.90
2022-12-12T00:37:38.633Z,64.60
2022-12-12T00:40:06.676Z,65.20
2022-12-12T00:42:33.864Z,63.10
2022-12-12T00:45:01.089Z,64.30
2022-12-12T00:47:29.189Z,64.40
2022-12-12T00:49:56.361Z,62.90
2022-12-12T00:52:23.532Z,62.30
2022-12-12T00:54:50.905Z,62.20
2022-12-12T00:57:18.182Z,62.50
2022-12-12T00:59:45.391Z,63.20
2022-12-12T01:02:12.689Z,62.70
2022-12-12T01:04:40.076Z,63.00
2022-12-12T01:07:07.340Z,62.50
2022-12-12T01:09:34.831Z,62.60
2022-12-12T01:12:02.666Z,63.00
2022-12-12T01:14:29.885Z,63.30
2022-12-12T01:16:57.591Z,63.80
2022-12-12T01:19:24.731Z,63.70
2022-12-12T01:21:51.881Z,63.80
2022-12-12T01:24:20.537Z,63.00
2022-12-12T01:26:48.138Z,63.30
2022-12-12T01:29:15.262Z,62.60
2022-12-12T01:31:42.500Z,62.90
2022-12-12T01:34:09.697Z,62.50
2022-12-12T01:36:36.925Z,63.30
2022-12-12T01:39:04.334Z,62.60
2022-12-12T01:41:33.121Z,63.20
2022-12-12T01:44:02.820Z,63.50
2022-12-12T01:46:48.812Z,62.70
2022-12-12T01:49:21.352Z,62.80
2022-12-12T01:51:50.247Z,63.10
2022-12-12T01:54:22.132Z,63.40
2022-12-12T01:56:50.395Z,63.20
2022-12-12T01:59:20.583Z,63.50
2022-12-12T02:01:48.416Z,63.70
2022-12-12T02:04:16.392Z,63.50
2022-12-12T02:06:44.641Z,63.20
2022-12-12T02:09:14.231Z,63.80
2022-12-12T02:11:49.106Z,64.00
2022-12-12T02:14:25.974Z,64.10
2022-12-12T02:17:19.516Z,64.00
2022-12-12T02:20:17.839Z,64.10
2022-12-12T02:23:03.615Z,64.20
2022-12-12T02:25:54.631Z,64.30
2022-12-12T02:28:49.844Z,64.40
2022-12-12T02:31:23.670Z,64.60
2022-12-12T02:33:50.853Z,64.70
2022-12-12T02:36:40.556Z,64.80
2022-12-12T02:39:22.560Z,65.00
2022-12-12T02:41:55.764Z,65.00
2022-12-12T02:44:40.033Z,65.10
2022-12-12T02:47:22.960Z,64.90
2022-12-12T02:50:08.317Z,65.00
2022-12-12T02:52:36.357Z,65.00
2022-12-12T02:55:05.360Z,65.10
2022-12-12T02:57:33.420Z,65.20
2022-12-12T03:00:02.324Z,65.20
2022-12-12T03:02:46.989Z,65.30
2022-12-12T03:05:51.237Z,65.40
2022-12-12T03:08:36.367Z,66.20
2022-12-12T03:11:08.148Z,65.90
2022-12-12T03:13:38.326Z,65.80
2022-12-12T03:16:42.487Z,65.90
2022-12-12T03:19:09.762Z,66.00
2022-12-12T03:21:46.812Z,66.40
2022-12-12T03:24:33.209Z,66.40
2022-12-12T03:27:18.692Z,66.80
2022-12-12T03:29:59.974Z,66.70
2022-12-12T03:32:31.970Z,66.70
2022-12-12T03:35:15.944Z,66.90
2022-12-12T03:37:49.379Z,66.70
2022-12-12T03:40:26.463Z,66.90
2022-12-12T03:43:09.128Z,66.90
2022-12-12T03:45:58.193Z,67.00
2022-12-12T03:48:31.242Z,66.90
2022-12-12T03:51:01.356Z,66.50
2022-12-12T03:53:53.417Z,66.50
2022-12-12T03:56:52.920Z,66.10
2022-12-12T03:59:27.660Z,66.30
2022-12-12T04:02:02.456Z,65.60
2022-12-12T04:04:36.537Z,65.30
2022-12-12T04:07:03.722Z,65.30
2022-12-12T04:09:49.682Z,64.30
2022-12-12T04:12:45.146Z,64.30
2022-12-12T04:15:25.110Z,65.20
2022-12-12T04:18:02.375Z,63.70
2022-12-12T04:20:57.370Z,63.80
2022-12-12T04:24:02.477Z,63.80
2022-12-12T04:26:41.039Z,62.60
2022-12-12T04:29:38.929Z,63.20
2022-12-12T04:32:32.723Z,61.80
2022-12-12T04:35:14.450Z,62.10
2022-12-12T04:37:46.631Z,62.30
2022-12-12T04:40:18.334Z,62.40
2022-12-12T04:42:56.433Z,61.70
2022-12-12T04:45:28.842Z,62.20
2022-12-12T04:47:58.412Z,61.70
2022-12-12T04:50:28.296Z,62.10
2022-12-12T04:52:58.929Z,62.30
2022-12-12T04:55:33.044Z,62.20
2022-12-12T04:58:02.378Z,62.10
2022-12-12T05:00:39.457Z,62.50
2022-12-12T05:03:11.796Z,62.40
2022-12-12T05:05:47.692Z,62.40
2022-12-12T05:08:46.018Z,62.50
2022-12-12T05:11:14.146Z,62.50
2022-12-12T05:13:42.752Z,62.70
2022-12-12T05:16:24.227Z,62.90
2022-12-12T05:18:51.639Z,63.10
2022-12-12T05:21:18.941Z,63.40
2022-12-12T05:23:46.269Z,64.00
2022-12-12T05:26:26.087Z,64.00
2022-12-12T05:28:53.478Z,64.00
2022-12-12T05:31:21.021Z,64.10
2022-12-12T05:33:48.626Z,64.40
2022-12-12T05:36:16.161Z,64.70
2022-12-12T05:38:43.811Z,65.00
2022-12-12T05:41:11.688Z,65.20
2022-12-12T05:43:39.248Z,65.40
2022-12-12T05:46:06.795Z,65.20
2022-12-12T05:48:34.732Z,65.00
2022-12-12T05:51:02.993Z,65.30
2022-12-12T05:53:30.775Z,65.70
2022-12-12T05:55:58.180Z,65.90
2022-12-12T05:58:27.129Z,65.80
2022-12-12T06:00:57.359Z,65.90
2022-12-12T06:03:28.769Z,65.60
2022-12-12T06:05:55.978Z,65.80
2022-12-12T06:08:25.217Z,65.80
2022-12-12T06:10:53.107Z,66.00
2022-12-12T06:13:20.334Z,65.90
2022-12-12T06:15:47.601Z,66.30
2022-12-12T06:18:15.937Z,66.10
2022-12-12T06:20:43.465Z,66.10
2022-12-12T06:23:10.612Z,66.10
2022-12-12T06:25:38.857Z,66.20
2022-12-12T06:28:06.261Z,66.10
2022-12-12T06:30:33.603Z,66.10
2022-12-12T06:33:00.718Z,66.40
2022-12-12T06:35:27.845Z,66.00
2022-12-12T06:37:55.170Z,66.10
2022-12-12T06:40:22.426Z,65.80
2022-12-12T06:42:49.655Z,65.80
2022-12-12T06:45:17.344Z,65.70
2022-12-12T06:47:44.694Z,65.30
2022-12-12T06:50:12.264Z,65.50
2022-12-12T06:52:39.673Z,65.50
2022-12-12T06:55:07.133Z,64.90
2022-12-12T06:57:36.117Z,65.00
2022-12-12T07:00:05.756Z,65.30
2022-12-12T07:02:32.956Z,64.60
2022-12-12T07:05:00.137Z,63.80
2022-12-12T07:07:27.295Z,63.90
2022-12-12T07:09:54.646Z,64.40
2022-12-12T07:12:21.996Z,64.40
2022-12-12T07:14:49.146Z,63.40
2022-12-12T07:17:16.325Z,63.40
2022-12-12T07:19:43.767Z,63.40
2022-12-12T07:22:11.828Z,63.50
2022-12-12T07:24:39.254Z,63.50
2022-12-12T07:27:07.316Z,63.50
2022-12-12T07:29:34.694Z,62.10
2022-12-12T07:32:01.850Z,62.90
2022-12-12T07:34:29.995Z,63.30
2022-12-12T07:37:02.652Z,62.00
2022-12-12T07:39:34.233Z,61.10
2022-12-12T07:42:01.388Z,61.50
2022-12-12T07:44:28.617Z,62.10
2022-12-12T07:46:59.212Z,62.10
2022-12-12T07:49:29.188Z,61.40
2022-12-12T07:51:56.733Z,60.50
2022-12-12T07:54:23.878Z,60.80
2022-12-12T07:56:51.029Z,61.00
2022-12-12T07:59:18.175Z,61.00
2022-12-12T08:01:45.412Z,61.10
2022-12-12T08:04:12.644Z,61.60
2022-12-12T08:06:39.796Z,61.30
2022-12-12T08:09:06.973Z,61.60
2022-12-12T08:11:34.070Z,60.40
2022-12-12T08:14:01.297Z,60.80
2022-12-12T08:16:28.970Z,61.50
2022-12-12T08:18:58.245Z,60.20
2022-12-12T08:21:27.176Z,58.70
2022-12-12T08:24:02.483Z,59.80
2022-12-12T08:34:12.951Z,59.90
2022-12-12T08:36:40.271Z,57.40
2022-12-12T08:39:13.307Z,57.70
2022-12-12T08:41:43.256Z,58.50
2022-12-12T08:44:13.827Z,58.40
2022-12-12T08:46:41.740Z,59.10
2022-12-12T08:49:10.004Z,58.40
2022-12-12T08:51:41.496Z,57.80
2022-12-12T08:54:11.801Z,58.30
2022-12-12T08:56:39.708Z,58.50
2022-12-12T08:59:07.613Z,58.20
2022-12-12T09:01:35.173Z,58.50
2022-12-12T09:04:02.632Z,58.40
2022-12-12T09:06:30.329Z,57.00
2022-12-12T09:08:59.244Z,57.20
2022-12-12T09:11:26.840Z,57.60
2022-12-12T09:13:54.798Z,57.10
2022-12-12T09:16:27.686Z,56.50
2022-12-12T09:18:55.016Z,57.20
2022-12-12T09:21:22.852Z,57.10
2022-12-12T09:23:50.404Z,57.60
2022-12-12T09:26:18.305Z,56.70
2022-12-12T09:28:45.732Z,57.20
2022-12-12T09:31:13.318Z,57.10
2022-12-12T09:33:43.437Z,57.40
2022-12-12T09:36:15.092Z,56.90
2022-12-12T09:38:43.084Z,57.50
2022-12-12T09:41:10.730Z,57.50
2022-12-12T09:43:45.501Z,57.80
2022-12-12T09:46:34.582Z,57.80
2022-12-12T09:49:54.370Z,58.40
2022-12-12T09:52:33.185Z,58.60
2022-12-12T09:55:06.735Z,59.20
2022-12-12T09:57:46.278Z,59.70
2022-12-12T10:00:15.563Z,60.80
2022-12-12T10:02:46.147Z,60.80
2022-12-12T10:05:23.825Z,60.60
2022-12-12T10:08:28.714Z,60.10
2022-12-12T10:11:04.346Z,59.80
2022-12-12T10:13:33.941Z,60.50
2022-12-12T10:16:07.762Z,59.30
2022-12-12T10:18:48.527Z,59.50
2022-12-12T10:21:26.242Z,59.30
2022-12-12T10:24:38.771Z,58.80
2022-12-12T10:27:12.462Z,56.60
2022-12-12T10:29:46.426Z,56.90
2022-12-12T10:32:43.371Z,56.90
2022-12-12T10:35:20.001Z,56.30
2022-12-12T10:38:29.139Z,56.60
2022-12-12T10:41:29.890Z,55.40
2022-12-12T10:44:05.743Z,55.00
2022-12-12T10:47:05.823Z,55.00
2022-12-12T10:49:37.308Z,54.90
2022-12-12T10:52:11.626Z,54.20
2022-12-12T10:54:46.042Z,52.90
2022-12-12T10:57:25.015Z,52.90
2022-12-12T10:59:55.303Z,52.50
2022-12-12T11:02:39.730Z,53.10
2022-12-12T11:05:44.095Z,52.90
2022-12-12T11:08:20.655Z,53.30
2022-12-12T11:11:19.252Z,53.20
2022-12-12T11:13:52.018Z,52.70
2022-12-12T11:16:24.117Z,53.60
2022-12-12T11:19:19.242Z,51.90
2022-12-12T11:21:47.803Z,53.10
2022-12-12T11:24:18.571Z,53.10
2022-12-12T11:26:51.946Z,52.90
2022-12-12T11:30:01.532Z,53.30
2022-12-12T11:32:30.674Z,53.20
2022-12-12T11:35:01.606Z,53.10
2022-12-12T11:37:38.358Z,53.70
2022-12-12T11:40:06.724Z,54.10
2022-12-12T11:42:35.049Z,54.30
2022-12-12T11:45:05.147Z,54.50
2022-12-12T11:47:39.086Z,55.00
2022-12-12T11:50:24.451Z,55.50
2022-12-12T11:52:54.843Z,56.30
2022-12-12T11:55:31.954Z,56.70
2022-12-12T11:58:24.885Z,57.60
2022-12-12T12:00:57.155Z,58.60
2022-12-12T12:03:39.411Z,58.50
2022-12-12T12:06:10.738Z,58.30
2022-12-12T12:09:02.972Z,57.60
2022-12-12T12:12:01.507Z,56.40
2022-12-12T12:14:40.185Z,57.10
2022-12-12T12:17:55.428Z,57.20
2022-12-12T12:20:37.772Z,57.10
2022-12-12T12:23:17.147Z,57.00
2022-12-12T12:26:15.931Z,56.50
2022-12-12T12:29:20.937Z,56.20
2022-12-12T12:32:11.321Z,57.00
2022-12-12T12:35:09.268Z,57.20
2022-12-12T12:37:46.907Z,56.90
2022-12-12T12:40:33.622Z,56.60
2022-12-12T12:43:29.136Z,56.90
2022-12-12T12:46:00.042Z,56.70
2022-12-12T12:48:36.846Z,57.30
2022-12-12T12:51:06.883Z,57.80
2022-12-12T12:53:40.682Z,58.30
2022-12-12T12:56:25.128Z,58.80
2022-12-12T12:59:04.002Z,58.60
2022-12-12T13:01:40.262Z,58.70
2022-12-12T13:04:10.304Z,58.60
2022-12-12T13:07:12.216Z,58.60
2022-12-12T13:10:00.959Z,58.40
2022-12-12T13:12:47.063Z,58.40
2022-12-12T13:15:26.860Z,58.50
2022-12-12T13:18:04.545Z,58.60
2022-12-12T13:20:40.412Z,58.80
2022-12-12T13:23:30.051Z,58.90
2022-12-12T13:26:01.010Z,58.70
2022-12-12T13:28:43.516Z,58.50
2022-12-12T13:31:40.913Z,58.50
2022-12-12T13:34:21.318Z,58.60
2022-12-12T13:36:51.097Z,59.00
2022-12-12T13:39:26.688Z,58.90
2022-12-12T13:42:01.811Z,59.00
2022-12-12T13:44:33.054Z,59.60
2022-12-12T13:47:00.478Z,60.60
2022-12-12T13:49:30.778Z,61.00
2022-12-12T13:52:26.105Z,62.50
2022-12-12T13:55:18.132Z,63.30
2022-12-12T13:57:57.328Z,62.60
2022-12-12T14:01:02.143Z,62.50
2022-12-12T14:03:30.706Z,63.10
2022-12-12T14:06:10.467Z,63.60
2022-12-12T14:08:39.197Z,63.50
2022-12-12T14:11:18.140Z,64.60
2022-12-12T14:13:50.916Z,64.90
2022-12-12T14:16:26.512Z,65.40
2022-12-12T14:19:19.061Z,65.60
2022-12-12T14:21:48.597Z,66.40
2022-12-12T14:24:34.329Z,66.70
2022-12-12T14:27:09.882Z,69.50
2022-12-12T14:29:45.286Z,69.50
2022-12-12T14:32:12.500Z,68.40
2022-12-12T14:35:18.456Z,69.10
2022-12-12T14:37:52.101Z,70.10
2022-12-12T14:40:39.285Z,70.20
2022-12-12T14:43:27.098Z,71.30
2022-12-12T14:45:59.269Z,70.80
2022-12-12T14:48:29.332Z,71.20
2022-12-12T14:51:28.997Z,73.10
2022-12-12T14:54:00.404Z,73.80
2022-12-12T14:56:32.868Z,75.80
2022-12-12T14:59:07.534Z,76.70
2022-12-12T15:01:44.823Z,77.70
2022-12-12T15:04:18.302Z,77.80
2022-12-12T15:06:55.845Z,78.40
2022-12-12T15:09:26.021Z,77.50
2022-12-12T15:11:56.123Z,78.40
2022-12-12T15:14:27.147Z,80.40
2022-12-12T15:17:00.389Z,82.20
2022-12-12T15:19:30.392Z,82.80
2022-12-12T15:22:00.993Z,84.60
2022-12-12T15:24:37.267Z,84.60
2022-12-12T15:27:06.418Z,84.80
2022-12-12T15:29:35.560Z,84.90
2022-12-12T15:32:12.302Z,84.40
2022-12-12T15:34:42.763Z,84.60
2022-12-12T15:37:27.321Z,85.20
2022-12-12T15:40:06.725Z,85.00
2022-12-12T15:42:42.349Z,85.50
2022-12-12T15:45:22.479Z,85.10
2022-12-12T15:47:55.437Z,84.60
2022-12-12T15:50:44.116Z,85.10
2022-12-12T15:53:34.111Z,85.50
2022-12-12T15:56:01.271Z,85.10
2022-12-12T15:58:46.933Z,85.80
2022-12-12T16:01:20.043Z,85.80
2022-12-12T16:04:21.866Z,85.80
2022-12-12T16:06:49.376Z,85.80
2022-12-12T16:09:18.324Z,86.00
2022-12-12T16:11:56.532Z,86.90
2022-12-12T16:14:41.726Z,86.30
2022-12-12T16:17:25.363Z,86.30
2022-12-12T16:19:54.401Z,86.80
2022-12-12T16:22:46.781Z,86.50
2022-12-12T16:25:34.631Z,86.60
2022-12-12T16:28:07.638Z,86.20
2022-12-12T16:30:37.184Z,86.40
2022-12-12T16:33:24.147Z,87.00
2022-12-12T16:35:52.825Z,87.80
2022-12-12T16:38:21.406Z,89.30
2022-12-12T16:40:51.426Z,88.60
2022-12-12T16:43:20.757Z,88.40
2022-12-12T16:45:53.392Z,88.00
2022-12-12T16:48:37.704Z,87.90
2022-12-12T16:51:07.169Z,87.50
2022-12-12T16:53:36.398Z,88.00
2022-12-12T16:56:04.117Z,87.90
2022-12-12T16:58:31.331Z,87.30
2022-12-12T17:01:00.308Z,87.60
2022-12-12T17:03:27.634Z,88.10
2022-12-12T17:05:55.190Z,88.00
2022-12-12T17:08:23.037Z,88.60
2022-12-12T17:10:52.350Z,87.90
2022-12-12T17:13:37.741Z,87.40
2022-12-12T17:16:05.224Z,87.10
2022-12-12T17:18:32.494Z,87.20
2022-12-12T17:21:00.005Z,86.80
2022-12-12T17:23:29.988Z,86.70
2022-12-12T17:26:03.388Z,86.60
2022-12-12T17:28:33.080Z,86.30
2022-12-12T17:31:00.328Z,86.40
2022-12-12T17:33:27.589Z,86.10
2022-12-12T17:36:04.299Z,86.00
2022-12-12T17:38:32.693Z,86.20
2022-12-12T17:41:05.031Z,86.00
2022-12-12T17:43:32.363Z,85.50
2022-12-12T17:46:01.915Z,85.60
2022-12-12T17:48:34.586Z,86.40
2022-12-12T17:51:04.998Z,85.60
2022-12-12T17:53:38.047Z,85.30
2022-12-12T17:56:16.036Z,84.70
2022-12-12T17:58:45.102Z,84.70
2022-12-12T18:01:15.255Z,84.40
2022-12-12T18:03:43.520Z,84.40
2022-12-12T18:06:11.626Z,83.50
2022-12-12T18:08:39.456Z,84.00
2022-12-12T18:11:09.339Z,83.60
2022-12-12T18:13:38.694Z,83.80
2022-12-12T18:16:08.132Z,83.80
2022-12-12T18:18:35.893Z,84.10
2022-12-12T18:21:04.990Z,84.00
2022-12-12T18:23:32.750Z,84.20
2022-12-12T18:26:05.633Z,83.20
2022-12-12T18:28:32.903Z,83.40
2022-12-12T18:31:00.047Z,83.60
2022-12-12T18:33:27.349Z,83.90
2022-12-12T18:36:05.974Z,83.90
2022-12-12T18:38:33.494Z,83.20
2022-12-12T18:41:01.478Z,83.30
2022-12-12T18:43:29.635Z,83.20
2022-12-12T18:46:05.409Z,83.00
2022-12-12T18:48:35.131Z,82.30
2022-12-12T18:51:11.395Z,82.40
2022-12-12T18:53:41.429Z,82.20
2022-12-12T18:56:17.001Z,81.80
2022-12-12T18:58:44.911Z,82.10
2022-12-12T19:01:15.264Z,81.40
2022-12-12T19:03:43.863Z,80.70
2022-12-12T19:06:14.306Z,81.20
2022-12-12T19:08:42.307Z,80.30
2022-12-12T19:11:14.180Z,80.80
2022-12-12T19:13:43.064Z,80.30
2022-12-12T19:16:15.827Z,80.60
2022-12-12T19:18:44.730Z,80.80
2022-12-12T19:21:20.860Z,79.50
2022-12-12T19:23:48.537Z,80.10
2022-12-12T19:26:19.888Z,79.80
2022-12-12T19:28:47.838Z,79.50
2022-12-12T19:31:16.903Z,78.70
2022-12-12T19:33:52.247Z,79.30
2022-12-12T19:36:24.833Z,79.20
2022-12-12T19:38:53.884Z,77.60
2022-12-12T19:41:22.384Z,77.60
2022-12-12T19:43:51.034Z,77.50
2022-12-12T19:46:23.976Z,78.20
2022-12-12T19:49:02.083Z,78.40
2022-12-12T19:51:32.733Z,78.60
2022-12-12T19:54:06.840Z,77.50
2022-12-12T19:56:36.085Z,77.40
2022-12-12T19:59:05.421Z,77.40
2022-12-12T20:01:34.887Z,77.80
2022-12-12T20:04:14.107Z,78.60
2022-12-12T20:06:44.613Z,78.70
2022-12-12T20:09:23.092Z,78.60
2022-12-12T20:11:50.916Z,78.20
2022-12-12T20:14:23.576Z,77.90
2022-12-12T20:16:51.964Z,76.70
2022-12-12T20:19:19.684Z,77.20
2022-12-12T20:22:04.064Z,77.80
2022-12-12T20:24:37.469Z,78.00
2022-12-12T20:27:29.986Z,78.20
2022-12-12T20:29:57.270Z,77.80
2022-12-12T20:32:24.698Z,77.60
2022-12-12T20:34:52.017Z,77.60
2022-12-12T20:37:20.309Z,76.90
2022-12-12T20:39:47.712Z,76.70
2022-12-12T20:42:15.442Z,77.00
2022-12-12T20:44:42.679Z,77.30
2022-12-12T20:47:14.330Z,77.30
2022-12-12T20:50:20.012Z,77.30
2022-12-12T20:52:47.850Z,77.20
2022-12-12T20:55:18.086Z,76.90
2022-12-12T20:57:48.783Z,77.10
2022-12-12T21:00:16.557Z,76.80
2022-12-12T21:02:44.211Z,77.00
2022-12-12T21:05:11.817Z,77.40
2022-12-12T21:07:41.030Z,77.40
2022-12-12T21:10:08.888Z,77.50
2022-12-12T21:12:36.215Z,77.40
2022-12-12T21:15:04.178Z,77.70
2022-12-12T21:17:31.511Z,77.60
2022-12-12T21:20:04.668Z,77.80
2022-12-12T21:22:33.625Z,77.80
2022-12-12T21:25:00.977Z,77.70
2022-12-12T21:27:29.438Z,77.80
2022-12-12T21:29:56.729Z,77.80
2022-12-12T21:32:23.907Z,77.70
2022-12-12T21:34:51.031Z,77.80
2022-12-12T21:37:18.268Z,77.60
2022-12-12T21:39:46.016Z,77.70
2022-12-12T21:42:13.498Z,77.30
2022-12-12T21:44:45.637Z,77.10
2022-12-12T21:47:13.472Z,77.30
2022-12-12T21:49:40.804Z,77.50
2022-12-12T21:52:12.128Z,77.70
2022-12-12T21:54:39.584Z,77.70
2022-12-12T21:57:09.958Z,77.60
2022-12-12T21:59:40.315Z,77.60
2022-12-12T22:02:07.608Z,77.50
2022-12-12T22:04:34.994Z,76.40
2022-12-12T22:07:02.162Z,77.00
2022-12-12T22:09:29.408Z,77.00
2022-12-12T22:12:04.332Z,77.80
2022-12-12T22:14:33.411Z,77.20
2022-12-12T22:17:02.056Z,77.20
2022-12-12T22:19:29.756Z,77.00
2022-12-12T22:21:57.283Z,76.60
2022-12-12T22:24:26.095Z,76.60
2022-12-12T22:26:53.269Z,76.20
2022-12-12T22:29:20.804Z,75.20
2022-12-12T22:31:50.413Z,75.60
2022-12-12T22:34:23.685Z,75.80
2022-12-12T22:36:52.215Z,75.80
2022-12-12T22:39:23.428Z,75.90
2022-12-12T22:41:51.028Z,75.90
2022-12-12T22:44:20.308Z,75.10
2022-12-12T22:46:49.800Z,74.90
2022-12-12T22:49:21.082Z,74.80
2022-12-12T22:51:49.470Z,74.10
2022-12-12T22:54:16.955Z,74.90
2022-12-12T22:56:44.243Z,75.00
2022-12-12T22:59:14.494Z,75.00
2022-12-12T23:01:42.495Z,75.00
2022-12-12T23:04:13.975Z,75.00
2022-12-12T23:06:42.704Z,75.10
2022-12-12T23:09:16.537Z,75.20
2022-12-12T23:11:44.725Z,75.20
2022-12-12T23:14:19.798Z,75.00
2022-12-12T23:16:47.733Z,75.00
2022-12-12T23:19:17.366Z,73.60
2022-12-12T23:21:45.459Z,70.70
2022-12-12T23:24:13.762Z,72.90
2022-12-12T23:26:42.719Z,71.00
2022-12-12T23:29:14.171Z,72.20
2022-12-12T23:31:41.441Z,73.20
2022-12-12T23:34:17.945Z,73.50
2022-12-12T23:36:45.168Z,72.70
2022-12-12T23:39:14.832Z,72.10
2022-12-12T23:41:42.200Z,72.40
2022-12-12T23:44:12.622Z,69.60
2022-12-12T23:46:40.617Z,69.00
2022-12-12T23:49:15.547Z,71.30
2022-12-12T23:51:45.419Z,71.80
2022-12-12T23:54:21.588Z,71.40
2022-12-12T23:56:50.221Z,72.00
2022-12-12T23:59:19.465Z,71.40
